Charleston, SC

5:23 AM EDT on August 29, 2016 (GMT -0400)
Seaside Plantation | | Change Station
Active Advisory: Coastal Hazard Statement

Elev 35 ft 32.71 °N, 79.95 °W | Updated 13 minutes ago

Mostly Cloudy
Mostly Cloudy
75.2 °F
Feels Like 74 °F
N
2.2
Wind Variable Wind from NE

Today
High -- | Low -- °F
--% Chance of Precip.
Yesterday
High -- | Low -- °F
Precip. -- in
Pressure 30.04 in
Visibility 4.0 miles
Clouds Mostly Cloudy 400 ft
Heat Index 74 °F
Dew Point 74 °F
Humidity 95%
Rainfall 0.00 in
Snow Depth Not available.
6:52 AM 7:47 PM
Waning Crescent, 10% visible
METAR KJZI 290915Z AUTO 35005KT 4SM BR BKN004 24/24 A3004 RMK AO2
Pressure 30.04 in
Visibility 4.0 miles
Clouds Mostly Cloudy 400 ft
Heat Index 74 °F
Dew Point 74 °F
Humidity 95%
Rainfall 0.00 in
Snow Depth Not available.
6:52 AM 7:47 PM
Waning Crescent, 10% visible
METAR KJZI 290915Z AUTO 35005KT 4SM BR BKN004 24/24 A3004 RMK AO2
The area of storminess, previously known as Invest 99-L that we were monitoring for days, finally developed into Tropical Depression Nine near the Florida Keys on Sunday evening.

There remains a large degree of uncertainty around how much this system will strengthen once it gets into the southeast Gulf of Mexico. For now, the clockwise flow around upper-level high pressure over the eastern United States will steer Tropical Depression Nine west-northwest toward the Gulf. That high will weaken by Tuesday, allowing this system to move more north, and then eventually northeast the next several days on a path toward the Florida Gulf Coast.

10-Day Weather Forecast

Almanac

Astronomy

Aug. 29, 2016 Rise Set
Actual Time
Civil Twilight
Nautical Twilight
Astronomical Twilight
Moon
Length of Visible Light
Length of Day
Tomorrow will be .
, % of the Moon is Illuminated

Today's Extremes

State Highs State Lows

Community

WunderPhotos

Upload Photos

1,935,798 photos uploaded!

WunderBlog® & News

Nearby

Air Quality

  Air Quality AQ Index Pollutant
Not available.

Snow Depth

Station Depth Elevation

Earthquake Activity

City Distance Mag. Time & Date
Minimum magnitude displayed is 2.5.

Coastal Water Temperatures

Place Temperature

Stations

Nearby Weather Stations

Station Location Temp. Windchill Dew Point Humidity Wind Precip. Elev Updated Type
                   

Watches & Warnings

Coastal Hazard Statement
Issued: 3:28 AM EDT Aug. 29, 2016 – National Weather Service

... High rip current risk remains in effect through this evening...

* rip currents... wind and wave conditions support the
development of very strong rip currents. These rip currents
will be life threatening to anyone who enters the surf.

Precautionary/preparedness actions...

No one should enter the surf due to life threatening rip
currents.